Time;durP1;ratioP1;P1;durP2;ratioP2;P2;SDS_P1;SDS_P2;PMS_P1;PMS_P2;Temp;Humidity;BMP_temperature;BMP_pressure;BME280_temperature;BME280_humidity;BME280_pressure;Samples;Min_cycle;Max_cycle;Signal;HPM_P1;HPM_P2
2024/03/27 06:02:33;;;;;;;;;;;;;;;;;;5006519;23;19992;-41
2024/03/27 06:04:59;;;;;;;;;;;;;;;;;;4973903;28;20368;-42
2024/03/27 06:07:25;;;;;;;;;;;;;;;;;;4962388;28;19915;-42
2024/03/27 06:09:50;;;;;;;;;;;;;;;;;;4975135;28;20009;-42
2024/03/27 06:12:16;;;;;;;;;;;;;;;;;;4974130;28;20300;-41
2024/03/27 06:14:43;;;;;;;;;;;;;;;;;;4956877;28;19923;-41
2024/03/27 06:17:09;;;;;;;;;;;;;;;;;;4975350;28;19914;-43
2024/03/27 06:19:34;;;;;;;;;;;;;;;;;;4975091;28;19957;-42
2024/03/27 06:22:00;;;;;;;;;;;;;;;;;;4973845;28;19984;-40
2024/03/27 06:24:26;;;;;;;;;;;;;;;;;;4975354;28;19910;-39
2024/03/27 06:26:52;;;;;;;;;;;;;;;;;;4958051;28;19918;-40
2024/03/27 06:29:18;;;;;;;;;;;;;;;;;;4964333;28;19969;-39
2024/03/27 06:31:44;;;;;;;;;;;;;;;;;;4975046;28;19977;-39
2024/03/27 06:34:12;;;;;;;;;;;;;;;;;;4973283;28;19953;-39
2024/03/27 06:36:37;;;;;;;;;;;;;;;;;;4960994;28;19969;-39
2024/03/27 06:39:03;;;;;;;;;;;;;;;;;;4973461;28;20292;-39
2024/03/27 06:41:29;;;;;;;;;;;;;;;;;;4963304;28;19954;-39
2024/03/27 06:43:55;;;;;;;;;;;;;;;;;;4955935;28;19964;-40
2024/03/27 06:46:23;;;;;;;;;;;;;;;;;;4973727;28;19924;-40
2024/03/27 06:48:56;;;;;;;;;;;;;;;;;;4974845;28;19914;-41
2024/03/27 06:51:22;;;;;;;;;;;;;;;;;;4975156;28;20351;-40
2024/03/27 06:53:48;;;;;;;;;;;;;;;;;;4974721;28;19921;-40
2024/03/27 06:56:14;;;;;;;;;;;;;;;;;;4959134;28;19985;-40
2024/03/27 06:58:40;;;;;;;;;;;;;;;;;;4955434;28;19929;-40
2024/03/27 07:01:05;;;;;;;;;;;;;;;;;;4960991;28;19940;-40
2024/03/27 07:03:33;;;;;;;;;;;;;;;;;;4968133;28;19942;-40
2024/03/27 07:05:59;;;;;;;;;;;;;;;;;;4955670;28;19915;-40
2024/03/27 07:08:24;;;;;;;;;;;;;;;;;;4978249;28;19921;-40
2024/03/27 07:10:50;;;;;;;;;;;;;;;;;;4973360;28;19985;-41
2024/03/27 07:13:16;;;;;;;;;;;;;;;;;;4965896;28;19941;-40
2024/03/27 07:15:42;;;;;;;;;;;;;;;;;;4965864;28;19938;-41
2024/03/27 07:18:08;;;;;;;;;;;;;;;;;;4966803;28;20356;-40
2024/03/27 07:20:34;;;;;;;;;;;;;;;;;;4974555;28;19921;-40
2024/03/27 07:23:00;;;;;;;;;;;;;;;;;;4971251;28;19921;-40
2024/03/27 07:25:25;;;;;;;;;;;;;;;;;;4970008;28;19942;-41
2024/03/27 07:27:51;;;;;;;;;;;;;;;;;;4964070;28;19994;-40
2024/03/27 07:30:17;;;;;;;;;;;;;;;;;;4964575;28;19923;-41
2024/03/27 07:32:43;;;;;;;;;;;;;;;;;;4969000;28;19914;-41
2024/03/27 07:35:09;;;;;;;;;;;;;;;;;;4974291;28;19910;-41
2024/03/27 07:37:36;;;;;;;;;;;;;;;;;;4974273;28;19910;-40
2024/03/27 07:40:02;;;;;;;;;;;;;;;;;;4973889;28;20542;-41
2024/03/27 07:42:28;;;;;;;;;;;;;;;;;;4974178;28;19916;-40
2024/03/27 07:44:54;;;;;;;;;;;;;;;;;;4973161;28;19918;-41
2024/03/27 07:47:20;;;;;;;;;;;;;;;;;;4954710;28;19914;-40
2024/03/27 07:49:45;;;;;;;;;;;;;;;;;;4954609;29;19910;-40
2024/03/27 07:52:11;;;;;;;;;;;;;;;;;;4954879;28;19989;-41
2024/03/27 07:54:37;;;;;;;;;;;;;;;;;;4962159;28;20395;-41
2024/03/27 07:57:03;;;;;;;;;;;;;;;;;;4976293;28;19914;-41
2024/03/27 07:59:29;;;;;;;;;;;;;;;;;;4955828;28;19957;-41
2024/03/27 08:01:55;;;;;;;;;;;;;;;;;;4960064;28;19933;-41
2024/03/27 08:04:21;;;;;;;;;;;;;;;;;;4971814;28;19925;-41
2024/03/27 08:06:46;;;;;;;;;;;;;;;;;;4953768;28;19914;-41
2024/03/27 08:09:12;;;;;;;;;;;;;;;;;;4972686;28;19957;-41
2024/03/27 08:11:38;;;;;;;;;;;;;;;;;;4972673;28;19910;-41
2024/03/27 08:14:04;;;;;;;;;;;;;;;;;;4972539;28;20388;-41
2024/03/27 08:16:30;;;;;;;;;;;;;;;;;;4961786;28;19921;-41
2024/03/27 08:18:56;;;;;;;;;;;;;;;;;;4973027;28;19918;-40
2024/03/27 08:21:22;;;;;;;;;;;;;;;;;;4972926;28;19922;-40
2024/03/27 08:23:49;;;;;;;;;;;;;;;;;;4970329;28;19922;-40
2024/03/27 08:26:15;;;;;;;;;;;;;;;;;;4974351;28;19929;-41
2024/03/27 08:28:40;;;;;;;;;;;;;;;;;;4959393;28;19918;-40
2024/03/27 08:31:06;;;;;;;;;;;;;;;;;;4972505;28;20312;-40
2024/03/27 08:33:32;;;;;;;;;;;;;;;;;;4981943;28;19932;-40
2024/03/27 08:35:58;;;;;;;;;;;;;;;;;;4972348;28;19917;-40
2024/03/27 08:38:24;;;;;;;;;;;;;;;;;;4965860;28;20319;-40
2024/03/27 08:40:50;;;;;;;;;;;;;;;;;;4956129;28;19921;-40
2024/03/27 08:43:16;;;;;;;;;;;;;;;;;;4968613;28;19922;-40
2024/03/27 08:45:42;;;;;;;;;;;;;;;;;;4952908;28;19918;-40
2024/03/27 08:48:07;;;;;;;;;;;;;;;;;;4968032;28;20431;-39
2024/03/27 08:50:33;;;;;;;;;;;;;;;;;;4969680;28;19916;-40
2024/03/27 08:52:59;;;;;;;;;;;;;;;;;;4987511;28;19985;-40
2024/03/27 08:55:25;;;;;;;;;;;;;;;;;;4973402;28;19965;-40
2024/03/27 08:57:51;;;;;;;;;;;;;;;;;;4971267;28;20372;-40
2024/03/27 09:00:17;;;;;;;;;;;;;;;;;;4975983;28;19914;-40
2024/03/27 09:02:43;;;;;;;;;;;;;;;;;;4976719;28;19918;-40
2024/03/27 09:05:09;;;;;;;;;;;;;;;;;;4971129;28;19914;-40
2024/03/27 09:07:35;;;;;;;;;;;;;;;;;;4969836;28;20416;-40
2024/03/27 09:10:01;;;;;;;;;;;;;;;;;;4970606;28;19922;-40
2024/03/27 09:12:27;;;;;;;;;;;;;;;;;;4971440;28;20399;-39
2024/03/27 09:14:53;;;;;;;;;;;;;;;;;;4970775;28;19968;-40
2024/03/27 09:17:19;;;;;;;;;;;;;;;;;;4971473;28;19933;-40
2024/03/27 09:19:44;;;;;;;;;;;;;;;;;;4971673;28;19914;-40
2024/03/27 09:22:10;;;;;;;;;;;;;;;;;;4972121;28;19910;-40
2024/03/27 09:24:36;;;;;;;;;;;;;;;;;;4971738;28;19954;-40
2024/03/27 09:27:02;;;;;;;;;;;;;;;;;;4971467;28;20281;-40
2024/03/27 09:29:28;;;;;;;;;;;;;;;;;;4972108;28;19910;-40
2024/03/27 09:31:54;;;;;;;;;;;;;;;;;;4971757;28;19911;-40
2024/03/27 09:34:20;;;;;;;;;;;;;;;;;;4973273;28;19914;-40
2024/03/27 09:36:46;;;;;;;;;;;;;;;;;;4975452;28;19917;-40
2024/03/27 09:39:12;;;;;;;;;;;;;;;;;;4975294;28;20482;-40
2024/03/27 09:41:38;;;;;;;;;;;;;;;;;;4974518;28;19921;-41
2024/03/27 09:44:04;;;;;;;;;;;;;;;;;;4983150;28;19914;-40
2024/03/27 09:46:30;;;;;;;;;;;;;;;;;;4984687;28;20386;-40
2024/03/27 09:48:57;;;;;;;;;;;;;;;;;;4994766;28;20375;-40
2024/03/27 09:51:23;;;;;;;;;;;;;;;;;;4976841;28;19926;-40
2024/03/27 09:53:49;;;;;;;;;;;;;;;;;;4975347;28;19910;-40
2024/03/27 09:56:14;;;;;;;;;;;;;;;;;;4975174;28;19910;-40
2024/03/27 09:58:41;;;;;;;;;;;;;;;;;;4975029;28;19976;-40
2024/03/27 10:01:06;;;;;;;;;;;;;;;;;;4974936;28;20391;-40
2024/03/27 10:03:32;;;;;;;;;;;;;;;;;;4975502;28;19967;-40
2024/03/27 10:05:58;;;;;;;;;;;;;;;;;;4974247;28;20358;-40
2024/03/27 10:08:24;;;;;;;;;;;;;;;;;;4973829;28;19972;-41
2024/03/27 10:10:50;;;;;;;;;;;;;;;;;;4973921;28;20316;-40
2024/03/27 10:13:16;;;;;;;;;;;;;;;;;;4975051;28;19981;-40
2024/03/27 10:15:42;;;;;;;;;;;;;;;;;;4994340;28;19910;-41
2024/03/27 10:18:08;;;;;;;;;;;;;;;;;;4979237;28;19970;-40
2024/03/27 10:20:34;;;;;;;;;;;;;;;;;;4974708;28;20300;-41
2024/03/27 10:23:00;;;;;;;;;;;;;;;;;;4975079;28;19917;-41
2024/03/27 10:25:26;;;;;;;;;;;;;;;;;;4979631;28;20510;-41
2024/03/27 10:27:52;;;;;;;;;;;;;;;;;;4972822;28;19922;-41
2024/03/27 10:30:18;;;;;;;;;;;;;;;;;;4975552;28;19936;-41
2024/03/27 10:32:44;;;;;;;;;;;;;;;;;;4977266;28;20434;-42
2024/03/27 10:35:10;;;;;;;;;;;;;;;;;;4977602;28;19957;-41
2024/03/27 10:37:36;;;;;;;;;;;;;;;;;;4974475;28;20000;-41
2024/03/27 10:40:02;;;;;;;;;;;;;;;;;;4974462;28;19940;-41
2024/03/27 10:42:28;;;;;;;;;;;;;;;;;;4974067;28;19925;-42
2024/03/27 10:44:54;;;;;;;;;;;;;;;;;;4974320;28;19911;-41
2024/03/27 10:47:20;;;;;;;;;;;;;;;;;;4973491;28;19910;-41
2024/03/27 10:49:45;;;;;;;;;;;;;;;;;;4983491;28;19944;-41
2024/03/27 10:52:11;;;;;;;;;;;;;;;;;;4981915;28;19916;-41
2024/03/27 10:54:37;;;;;;;;;;;;;;;;;;4974172;28;20319;-42
2024/03/27 10:57:03;;;;;;;;;;;;;;;;;;4972166;28;19910;-42
2024/03/27 10:59:29;;;;;;;;;;;;;;;;;;4974028;28;19914;-41
2024/03/27 11:01:55;;;;;;;;;;;;;;;;;;4972761;28;20412;-41
2024/03/27 11:04:21;;;;;;;;;;;;;;;;;;4973940;28;19950;-42
2024/03/27 11:06:48;;;;;;;;;;;;;;;;;;4970565;28;19914;-40
2024/03/27 11:09:14;;;;;;;;;;;;;;;;;;4972394;28;19919;-40
2024/03/27 11:11:40;;;;;;;;;;;;;;;;;;4973791;28;20369;-40
2024/03/27 11:14:06;;;;;;;;;;;;;;;;;;4973644;28;19957;-41
2024/03/27 11:16:32;;;;;;;;;;;;;;;;;;4974024;28;20422;-40
2024/03/27 11:18:58;;;;;;;;;;;;;;;;;;4973600;28;19914;-40
2024/03/27 11:21:24;;;;;;;;;;;;;;;;;;4987272;28;19910;-40
2024/03/27 11:23:50;;;;;;;;;;;;;;;;;;4993113;28;19910;-40
2024/03/27 11:26:16;;;;;;;;;;;;;;;;;;4992988;28;19910;-40
2024/03/27 11:28:45;;;;;;;;;;;;;;;;;;4980968;28;19922;-42
2024/03/27 11:31:10;;;;;;;;;;;;;;;;;;4984133;28;19909;-40
2024/03/27 11:33:36;;;;;;;;;;;;;;;;;;4993036;28;19933;-40
2024/03/27 11:36:02;;;;;;;;;;;;;;;;;;4993344;28;19952;-41
2024/03/27 11:38:28;;;;;;;;;;;;;;;;;;4992476;28;20401;-40
2024/03/27 11:40:55;;;;;;;;;;;;;;;;;;4992557;28;19913;-41
2024/03/27 11:43:21;;;;;;;;;;;;;;;;;;4992672;28;19914;-40
2024/03/27 11:45:47;;;;;;;;;;;;;;;;;;4992582;28;19964;-40
2024/03/27 11:48:14;;;;;;;;;;;;;;;;;;4974662;28;19969;-40
2024/03/27 11:50:40;;;;;;;;;;;;;;;;;;4973995;28;19910;-40
2024/03/27 11:53:07;;;;;;;;;;;;;;;;;;4974162;28;19964;-41
2024/03/27 11:55:32;;;;;;;;;;;;;;;;;;4973948;28;19988;-40
2024/03/27 11:57:58;;;;;;;;;;;;;;;;;;4972953;28;20013;-40
2024/03/27 12:00:24;;;;;;;;;;;;;;;;;;4973669;28;19921;-41
2024/03/27 12:02:50;;;;;;;;;;;;;;;;;;4973026;28;19925;-40
2024/03/27 12:05:16;;;;;;;;;;;;;;;;;;4973706;28;19950;-40
2024/03/27 12:07:42;;;;;;;;;;;;;;;;;;4972107;28;20039;-40
2024/03/27 12:10:11;;;;;;;;;;;;;;;;;;4970031;28;19921;-41
2024/03/27 12:12:36;;;;;;;;;;;;;;;;;;4973230;28;20310;-41
2024/03/27 12:15:03;;;;;;;;;;;;;;;;;;4976649;28;20009;-40
2024/03/27 12:17:28;;;;;;;;;;;;;;;;;;4966293;28;19910;-40
2024/03/27 12:19:54;;;;;;;;;;;;;;;;;;4973181;28;20009;-40
2024/03/27 12:22:20;;;;;;;;;;;;;;;;;;4973130;28;19921;-40
2024/03/27 12:24:46;;;;;;;;;;;;;;;;;;4973252;28;19945;-41
2024/03/27 12:27:12;;;;;;;;;;;;;;;;;;4973129;28;19914;-40
2024/03/27 12:29:38;;;;;;;;;;;;;;;;;;4973344;28;19910;-40
2024/03/27 12:32:04;;;;;;;;;;;;;;;;;;4972912;28;19921;-40
2024/03/27 12:34:30;;;;;;;;;;;;;;;;;;4972758;28;20437;-41
2024/03/27 12:36:57;;;;;;;;;;;;;;;;;;4972980;28;19960;-41
2024/03/27 12:39:23;;;;;;;;;;;;;;;;;;4972877;28;20304;-41
2024/03/27 12:41:49;;;;;;;;;;;;;;;;;;4972927;28;19910;-42
2024/03/27 12:44:15;;;;;;;;;;;;;;;;;;4972843;28;19910;-41
2024/03/27 12:46:40;;;;;;;;;;;;;;;;;;4973119;28;19910;-40
2024/03/27 12:49:06;;;;;;;;;;;;;;;;;;4981682;28;19910;-41
2024/03/27 12:51:32;;;;;;;;;;;;;;;;;;4989353;28;19922;-41
2024/03/27 12:53:58;;;;;;;;;;;;;;;;;;4972983;28;20275;-41
2024/03/27 12:56:24;;;;;;;;;;;;;;;;;;4972781;28;19911;-41
2024/03/27 12:58:50;;;;;;;;;;;;;;;;;;4972828;28;19910;-41
2024/03/27 13:01:16;;;;;;;;;;;;;;;;;;4954644;28;19934;-41
2024/03/27 13:03:42;;;;;;;;;;;;;;;;;;4972805;28;19914;-41
2024/03/27 13:06:07;;;;;;;;;;;;;;;;;;4972961;28;19917;-41
2024/03/27 13:08:33;;;;;;;;;;;;;;;;;;4972101;28;19961;-41
2024/03/27 13:10:59;;;;;;;;;;;;;;;;;;4971218;28;19914;-41
2024/03/27 13:13:25;;;;;;;;;;;;;;;;;;4972144;28;20299;-41
2024/03/27 13:15:51;;;;;;;;;;;;;;;;;;4970958;28;19969;-41
2024/03/27 13:18:17;;;;;;;;;;;;;;;;;;4972658;28;19973;-41
2024/03/27 13:20:43;;;;;;;;;;;;;;;;;;4972596;28;19961;-41
2024/03/27 13:23:08;;;;;;;;;;;;;;;;;;4973001;28;20291;-42
2024/03/27 13:25:34;;;;;;;;;;;;;;;;;;4972703;28;19953;-41
2024/03/27 13:28:00;;;;;;;;;;;;;;;;;;4972580;28;20387;-41
2024/03/27 13:30:26;;;;;;;;;;;;;;;;;;4971870;28;20009;-42
2024/03/27 13:32:52;;;;;;;;;;;;;;;;;;4972602;28;19914;-41
2024/03/27 13:35:18;;;;;;;;;;;;;;;;;;4972514;28;19910;-41
2024/03/27 13:37:44;;;;;;;;;;;;;;;;;;4972282;28;19982;-42
2024/03/27 13:40:11;;;;;;;;;;;;;;;;;;4972558;28;19999;-42
2024/03/27 13:42:36;;;;;;;;;;;;;;;;;;4972453;28;19917;-41
2024/03/27 13:45:02;;;;;;;;;;;;;;;;;;4971329;28;19918;-41
2024/03/27 13:47:29;;;;;;;;;;;;;;;;;;4975878;28;19911;-42
2024/03/27 13:49:55;;;;;;;;;;;;;;;;;;4972358;28;20288;-41
2024/03/27 13:52:22;;;;;;;;;;;;;;;;;;4972222;28;19922;-42
2024/03/27 13:54:48;;;;;;;;;;;;;;;;;;4973041;28;20009;-42
2024/03/27 13:57:14;;;;;;;;;;;;;;;;;;4971179;28;20014;-42
2024/03/27 13:59:39;;;;;;;;;;;;;;;;;;4973562;28;20284;-42
2024/03/27 14:02:05;;;;;;;;;;;;;;;;;;4973684;28;19977;-43
2024/03/27 14:04:31;;;;;;;;;;;;;;;;;;4970991;28;20403;-42
2024/03/27 14:06:58;;;;;;;;;;;;;;;;;;4971557;28;19910;-42
2024/03/27 14:09:24;;;;;;;;;;;;;;;;;;4970069;28;19914;-44
2024/03/27 14:11:50;;;;;;;;;;;;;;;;;;4965184;28;19914;-42
2024/03/27 14:14:15;;;;;;;;;;;;;;;;;;4951917;29;20289;-41
2024/03/27 14:16:41;;;;;;;;;;;;;;;;;;4952231;29;19910;-42
2024/03/27 14:19:08;;;;;;;;;;;;;;;;;;4951804;29;20385;-42
2024/03/27 14:21:34;;;;;;;;;;;;;;;;;;4970395;28;20406;-42
2024/03/27 14:24:00;;;;;;;;;;;;;;;;;;4974731;28;19910;-42
2024/03/27 14:26:26;;;;;;;;;;;;;;;;;;4974570;28;19910;-44
2024/03/27 14:28:52;;;;;;;;;;;;;;;;;;4974502;28;20013;-42
2024/03/27 14:31:18;;;;;;;;;;;;;;;;;;4974540;28;19972;-42
2024/03/27 14:33:44;;;;;;;;;;;;;;;;;;4974763;28;19917;-42
2024/03/27 14:36:11;;;;;;;;;;;;;;;;;;4974781;28;20321;-43
2024/03/27 14:38:36;;;;;;;;;;;;;;;;;;4974494;28;20009;-42
2024/03/27 14:41:02;;;;;;;;;;;;;;;;;;4974374;28;19978;-44
2024/03/27 14:43:28;;;;;;;;;;;;;;;;;;4957101;28;19910;-42
2024/03/27 14:45:54;;;;;;;;;;;;;;;;;;4974382;28;19946;-42
2024/03/27 14:48:20;;;;;;;;;;;;;;;;;;4975241;28;19918;-44
2024/03/27 14:50:46;;;;;;;;;;;;;;;;;;4994143;28;20208;-43
2024/03/27 14:53:12;;;;;;;;;;;;;;;;;;4993904;28;20067;-42
2024/03/27 14:55:38;;;;;;;;;;;;;;;;;;4987106;28;19946;-42
2024/03/27 14:58:04;;;;;;;;;;;;;;;;;;4973871;28;19914;-42
2024/03/27 15:00:30;;;;;;;;;;;;;;;;;;4973687;28;19994;-42
2024/03/27 15:02:56;;;;;;;;;;;;;;;;;;4974173;28;19918;-43
2024/03/27 15:05:21;;;;;;;;;;;;;;;;;;4973838;28;19953;-42
2024/03/27 15:07:47;;;;;;;;;;;;;;;;;;4974024;28;20077;-42
2024/03/27 15:10:13;;;;;;;;;;;;;;;;;;4973906;28;20001;-43
2024/03/27 15:12:39;;;;;;;;;;;;;;;;;;4973692;28;19914;-42
2024/03/27 15:15:05;;;;;;;;;;;;;;;;;;4973716;28;19910;-42
2024/03/27 15:17:31;;;;;;;;;;;;;;;;;;4973580;28;19937;-42
2024/03/27 15:19:57;;;;;;;;;;;;;;;;;;4972000;28;20332;-43
2024/03/27 15:22:23;;;;;;;;;;;;;;;;;;4973485;28;19910;-43
2024/03/27 15:24:49;;;;;;;;;;;;;;;;;;4973619;28;19910;-42
2024/03/27 15:27:15;;;;;;;;;;;;;;;;;;4973907;28;20001;-43
2024/03/27 15:29:40;;;;;;;;;;;;;;;;;;4973316;28;19914;-43
2024/03/27 15:32:07;;;;;;;;;;;;;;;;;;4973379;28;20299;-43
2024/03/27 15:34:34;;;;;;;;;;;;;;;;;;4973524;28;20455;-44
2024/03/27 15:37:01;;;;;;;;;;;;;;;;;;4973459;28;20009;-46
2024/03/27 15:39:28;;;;;;;;;;;;;;;;;;4973181;28;19980;-43
2024/03/27 15:41:54;;;;;;;;;;;;;;;;;;4986426;28;20391;-43
2024/03/27 15:44:19;;;;;;;;;;;;;;;;;;4985652;28;19913;-42
2024/03/27 15:46:45;;;;;;;;;;;;;;;;;;4975137;28;19910;-44
2024/03/27 15:49:11;;;;;;;;;;;;;;;;;;4988368;28;19910;-44
2024/03/27 15:51:39;;;;;;;;;;;;;;;;;;4989738;28;20012;-43
2024/03/27 15:54:06;;;;;;;;;;;;;;;;;;4972613;28;19958;-43
2024/03/27 15:56:31;;;;;;;;;;;;;;;;;;4972785;28;20004;-43
2024/03/27 15:58:57;;;;;;;;;;;;;;;;;;4975621;28;19921;-43
2024/03/27 16:01:23;;;;;;;;;;;;;;;;;;4973535;28;19925;-43
2024/03/27 16:03:49;;;;;;;;;;;;;;;;;;4974172;28;20399;-43
2024/03/27 16:06:15;;;;;;;;;;;;;;;;;;4986490;28;19964;-43
2024/03/27 16:08:41;;;;;;;;;;;;;;;;;;4993018;28;19929;-44
2024/03/27 16:11:08;;;;;;;;;;;;;;;;;;4975439;28;19919;-44
2024/03/27 16:13:33;;;;;;;;;;;;;;;;;;4964137;28;20004;-42
2024/03/27 16:15:59;;;;;;;;;;;;;;;;;;4973528;28;19997;-45
2024/03/27 16:18:25;;;;;;;;;;;;;;;;;;4973434;28;19916;-42
2024/03/27 16:20:52;;;;;;;;;;;;;;;;;;4973611;28;19914;-43
2024/03/27 16:23:18;;;;;;;;;;;;;;;;;;4973752;28;19910;-44
2024/03/27 16:25:44;;;;;;;;;;;;;;;;;;4973336;28;20436;-43
2024/03/27 16:28:10;;;;;;;;;;;;;;;;;;4973133;28;19910;-44
2024/03/27 16:30:35;;;;;;;;;;;;;;;;;;4973106;28;19910;-46
2024/03/27 16:33:04;;;;;;;;;;;;;;;;;;4973450;28;19910;-43
2024/03/27 16:35:30;;;;;;;;;;;;;;;;;;4975039;28;19913;-43
2024/03/27 16:37:56;;;;;;;;;;;;;;;;;;4980769;28;19933;-45
2024/03/27 16:40:22;;;;;;;;;;;;;;;;;;4972418;28;20033;-44
2024/03/27 16:42:48;;;;;;;;;;;;;;;;;;4972234;28;19996;-44
2024/03/27 16:45:14;;;;;;;;;;;;;;;;;;4971977;28;19914;-45
2024/03/27 16:47:40;;;;;;;;;;;;;;;;;;4969547;28;19971;-43
2024/03/27 16:50:07;;;;;;;;;;;;;;;;;;4972090;28;20399;-44
2024/03/27 16:52:33;;;;;;;;;;;;;;;;;;4971810;28;19910;-44
2024/03/27 16:54:59;;;;;;;;;;;;;;;;;;4972109;28;19911;-44
2024/03/27 16:57:25;;;;;;;;;;;;;;;;;;4971531;28;19914;-46
2024/03/27 16:59:51;;;;;;;;;;;;;;;;;;4972492;28;19935;-45
2024/03/27 17:02:16;;;;;;;;;;;;;;;;;;4971040;28;20388;-44
2024/03/27 17:04:42;;;;;;;;;;;;;;;;;;4963999;28;19937;-44
2024/03/27 17:07:08;;;;;;;;;;;;;;;;;;4971687;28;19945;-46
2024/03/27 17:09:34;;;;;;;;;;;;;;;;;;4971781;28;19924;-45
2024/03/27 17:12:00;;;;;;;;;;;;;;;;;;4957227;28;20271;-47
2024/03/27 17:14:26;;;;;;;;;;;;;;;;;;4960282;28;19921;-46
2024/03/27 17:16:52;;;;;;;;;;;;;;;;;;4973115;28;20005;-43
2024/03/27 17:19:18;;;;;;;;;;;;;;;;;;4972589;28;20335;-42
2024/03/27 17:21:44;;;;;;;;;;;;;;;;;;4960892;28;19910;-43
2024/03/27 17:24:10;;;;;;;;;;;;;;;;;;4977297;28;19914;-43
2024/03/27 17:26:36;;;;;;;;;;;;;;;;;;4991681;28;20024;-43
2024/03/27 17:29:01;;;;;;;;;;;;;;;;;;4982126;28;19910;-43
2024/03/27 17:31:27;;;;;;;;;;;;;;;;;;4971745;28;19949;-42
2024/03/27 17:33:53;;;;;;;;;;;;;;;;;;4970516;28;19910;-44
2024/03/27 17:36:19;;;;;;;;;;;;;;;;;;4965375;28;20005;-44
2024/03/27 17:38:46;;;;;;;;;;;;;;;;;;4953264;28;20404;-43
2024/03/27 17:41:12;;;;;;;;;;;;;;;;;;4953458;28;20328;-43
2024/03/27 17:43:38;;;;;;;;;;;;;;;;;;4953284;29;19922;-44
2024/03/27 17:46:04;;;;;;;;;;;;;;;;;;4953162;29;20061;-42
2024/03/27 17:48:29;;;;;;;;;;;;;;;;;;4955975;28;19918;-42
2024/03/27 17:50:55;;;;;;;;;;;;;;;;;;4970540;28;20300;-43
2024/03/27 17:53:21;;;;;;;;;;;;;;;;;;4975139;28;19987;-42
2024/03/27 17:55:47;;;;;;;;;;;;;;;;;;4962513;28;20376;-42
2024/03/27 17:58:13;;;;;;;;;;;;;;;;;;4955057;29;19915;-44
2024/03/27 18:00:39;;;;;;;;;;;;;;;;;;4970054;28;19925;-42
2024/03/27 18:03:05;;;;;;;;;;;;;;;;;;4974407;28;19910;-43
2024/03/27 18:05:31;;;;;;;;;;;;;;;;;;4982706;28;20443;-43
2024/03/27 18:07:57;;;;;;;;;;;;;;;;;;4980540;28;19914;-43
2024/03/27 18:10:22;;;;;;;;;;;;;;;;;;4970263;28;19919;-43
2024/03/27 18:12:48;;;;;;;;;;;;;;;;;;4975955;28;19949;-42
2024/03/27 18:15:14;;;;;;;;;;;;;;;;;;4971934;28;19922;-44
2024/03/27 18:17:40;;;;;;;;;;;;;;;;;;4973279;28;20005;-42
2024/03/27 18:20:06;;;;;;;;;;;;;;;;;;4974252;28;19976;-43
2024/03/27 18:22:32;;;;;;;;;;;;;;;;;;4971096;28;19918;-42
2024/03/27 18:24:59;;;;;;;;;;;;;;;;;;4974872;28;19984;-43
2024/03/27 18:27:25;;;;;;;;;;;;;;;;;;4973805;28;19921;-42
2024/03/27 18:29:51;;;;;;;;;;;;;;;;;;4973192;28;19918;-42
2024/03/27 18:32:17;;;;;;;;;;;;;;;;;;4973934;28;19914;-42
2024/03/27 18:34:43;;;;;;;;;;;;;;;;;;4944001;29;19919;-43
2024/03/27 18:37:09;;;;;;;;;;;;;;;;;;4972507;28;19934;-42
2024/03/27 18:39:36;;;;;;;;;;;;;;;;;;4971687;28;19922;-43
2024/03/27 18:42:01;;;;;;;;;;;;;;;;;;4956700;28;20277;-43
2024/03/27 18:44:27;;;;;;;;;;;;;;;;;;4973366;28;19920;-42
2024/03/27 18:46:53;;;;;;;;;;;;;;;;;;4971611;28;19921;-42
2024/03/27 18:49:19;;;;;;;;;;;;;;;;;;4972861;28;20308;-44
2024/03/27 18:51:45;;;;;;;;;;;;;;;;;;4972099;28;19918;-43
2024/03/27 18:54:11;;;;;;;;;;;;;;;;;;4972966;28;20384;-43
2024/03/27 18:56:37;;;;;;;;;;;;;;;;;;4975842;28;19921;-44
2024/03/27 18:59:04;;;;;;;;;;;;;;;;;;4970680;28;19968;-42
2024/03/27 19:01:30;;;;;;;;;;;;;;;;;;4973337;28;20304;-42
2024/03/27 19:03:55;;;;;;;;;;;;;;;;;;4968274;28;19918;-43
2024/03/27 19:06:23;;;;;;;;;;;;;;;;;;4969229;28;19958;-45
2024/03/27 19:08:49;;;;;;;;;;;;;;;;;;4967742;28;19914;-46
2024/03/27 19:11:17;;;;;;;;;;;;;;;;;;4965384;28;19957;-45
2024/03/27 19:13:43;;;;;;;;;;;;;;;;;;4969522;28;19921;-46
2024/03/27 19:16:14;;;;;;;;;;;;;;;;;;4970047;28;20281;-43
2024/03/27 19:18:40;;;;;;;;;;;;;;;;;;4953522;29;19937;-43
2024/03/27 19:21:06;;;;;;;;;;;;;;;;;;4969223;28;19922;-43
2024/03/27 19:23:32;;;;;;;;;;;;;;;;;;4968796;28;19918;-43
2024/03/27 19:25:58;;;;;;;;;;;;;;;;;;4970719;28;19957;-43
2024/03/27 19:28:24;;;;;;;;;;;;;;;;;;4969627;28;20392;-43
2024/03/27 19:30:50;;;;;;;;;;;;;;;;;;4976659;28;19921;-45
2024/03/27 19:33:16;;;;;;;;;;;;;;;;;;4976067;28;20430;-43
2024/03/27 19:35:42;;;;;;;;;;;;;;;;;;4963020;28;21393;-44
2024/03/27 19:38:08;;;;;;;;;;;;;;;;;;4969402;28;20013;-45
2024/03/27 19:40:34;;;;;;;;;;;;;;;;;;4970793;28;20064;-46
2024/03/27 19:43:00;;;;;;;;;;;;;;;;;;4970358;28;19914;-44
2024/03/27 19:45:25;;;;;;;;;;;;;;;;;;4971169;28;19915;-43
2024/03/27 19:47:51;;;;;;;;;;;;;;;;;;4970460;28;19918;-44
2024/03/27 19:50:17;;;;;;;;;;;;;;;;;;4967854;28;20285;-44
2024/03/27 19:52:43;;;;;;;;;;;;;;;;;;4955945;28;19915;-44
2024/03/27 19:55:09;;;;;;;;;;;;;;;;;;4970923;28;19921;-43
2024/03/27 19:57:35;;;;;;;;;;;;;;;;;;4970164;28;20384;-44
2024/03/27 20:00:01;;;;;;;;;;;;;;;;;;4972406;28;19914;-43
2024/03/27 20:02:27;;;;;;;;;;;;;;;;;;4955448;28;19918;-43
2024/03/27 20:04:53;;;;;;;;;;;;;;;;;;4972393;28;19917;-43
2024/03/27 20:07:19;;;;;;;;;;;;;;;;;;4975535;28;19940;-42
2024/03/27 20:09:45;;;;;;;;;;;;;;;;;;4961689;28;19917;-42
2024/03/27 20:12:11;;;;;;;;;;;;;;;;;;4971161;28;19910;-42
2024/03/27 20:14:36;;;;;;;;;;;;;;;;;;4977774;28;20403;-42
2024/03/27 20:17:02;;;;;;;;;;;;;;;;;;4976112;28;19918;-43
2024/03/27 20:19:28;;;;;;;;;;;;;;;;;;4981511;28;19969;-42
2024/03/27 20:21:55;;;;;;;;;;;;;;;;;;4991346;28;19910;-44
2024/03/27 20:24:21;;;;;;;;;;;;;;;;;;4964450;28;20376;-42
2024/03/27 20:26:47;;;;;;;;;;;;;;;;;;4969080;28;19918;-44
2024/03/27 20:29:12;;;;;;;;;;;;;;;;;;4975090;28;19977;-44
2024/03/27 20:31:38;;;;;;;;;;;;;;;;;;4971872;28;19917;-44
2024/03/27 20:34:04;;;;;;;;;;;;;;;;;;4972243;28;20292;-44
2024/03/27 20:36:30;;;;;;;;;;;;;;;;;;4972152;28;20012;-43
2024/03/27 20:38:56;;;;;;;;;;;;;;;;;;4953137;28;19944;-44
2024/03/27 20:41:22;;;;;;;;;;;;;;;;;;4970156;28;19918;-43
2024/03/27 20:43:48;;;;;;;;;;;;;;;;;;4971502;28;19910;-43
2024/03/27 20:46:14;;;;;;;;;;;;;;;;;;4971074;28;19954;-45
2024/03/27 20:48:39;;;;;;;;;;;;;;;;;;4970339;28;20388;-44
2024/03/27 20:51:05;;;;;;;;;;;;;;;;;;4969660;28;19918;-43
2024/03/27 20:53:31;;;;;;;;;;;;;;;;;;4968359;28;19961;-43
2024/03/27 20:55:57;;;;;;;;;;;;;;;;;;4971119;28;19914;-44
2024/03/27 20:58:23;;;;;;;;;;;;;;;;;;4970711;28;20413;-42
2024/03/27 21:00:49;;;;;;;;;;;;;;;;;;4969321;28;19925;-44
2024/03/27 21:03:15;;;;;;;;;;;;;;;;;;4971649;28;19910;-43
2024/03/27 21:05:41;;;;;;;;;;;;;;;;;;4968818;28;19914;-43
2024/03/27 21:08:07;;;;;;;;;;;;;;;;;;4970646;28;20261;-42
2024/03/27 21:10:35;;;;;;;;;;;;;;;;;;4969294;28;20388;-42
2024/03/27 21:13:01;;;;;;;;;;;;;;;;;;4949146;28;19942;-42
2024/03/27 21:15:27;;;;;;;;;;;;;;;;;;4969494;28;19965;-42
2024/03/27 21:17:53;;;;;;;;;;;;;;;;;;4970292;28;20339;-43
2024/03/27 21:20:19;;;;;;;;;;;;;;;;;;4970853;28;19948;-43
2024/03/27 21:22:44;;;;;;;;;;;;;;;;;;4970677;28;20431;-44
2024/03/27 21:25:10;;;;;;;;;;;;;;;;;;4969710;28;20008;-43
2024/03/27 21:27:36;;;;;;;;;;;;;;;;;;4970221;28;19914;-45
2024/03/27 21:30:02;;;;;;;;;;;;;;;;;;4971141;28;19914;-46
2024/03/27 21:32:28;;;;;;;;;;;;;;;;;;4974850;28;19914;-42
2024/03/27 21:34:54;;;;;;;;;;;;;;;;;;4974389;28;20068;-47
2024/03/27 21:37:20;;;;;;;;;;;;;;;;;;4974121;28;19921;-43
2024/03/27 21:39:46;;;;;;;;;;;;;;;;;;4962593;28;19918;-43
2024/03/27 21:42:12;;;;;;;;;;;;;;;;;;4975679;28;19957;-42
2024/03/27 21:44:38;;;;;;;;;;;;;;;;;;4974727;28;19910;-43
2024/03/27 21:47:04;;;;;;;;;;;;;;;;;;4955952;28;19914;-43
2024/03/27 21:49:30;;;;;;;;;;;;;;;;;;4975480;28;19957;-46
2024/03/27 21:51:55;;;;;;;;;;;;;;;;;;4956971;28;20295;-44
2024/03/27 21:54:21;;;;;;;;;;;;;;;;;;4979389;28;19922;-47
2024/03/27 21:56:47;;;;;;;;;;;;;;;;;;4974009;28;19914;-44
2024/03/27 21:59:13;;;;;;;;;;;;;;;;;;4955066;28;19958;-43
2024/03/27 22:01:39;;;;;;;;;;;;;;;;;;4955317;28;20384;-42
2024/03/27 22:04:05;;;;;;;;;;;;;;;;;;4972758;28;19914;-46
2024/03/27 22:06:31;;;;;;;;;;;;;;;;;;4972435;28;19921;-42
2024/03/27 22:08:58;;;;;;;;;;;;;;;;;;4970852;28;20220;-44
2024/03/27 22:11:24;;;;;;;;;;;;;;;;;;4965348;28;19914;-44
2024/03/27 22:13:51;;;;;;;;;;;;;;;;;;4970020;28;20351;-43
2024/03/27 22:16:17;;;;;;;;;;;;;;;;;;4952462;28;19914;-42
2024/03/27 22:18:42;;;;;;;;;;;;;;;;;;4955347;28;19918;-42
2024/03/27 22:21:08;;;;;;;;;;;;;;;;;;4970778;28;19918;-44
2024/03/27 22:23:34;;;;;;;;;;;;;;;;;;4971825;28;19980;-44
2024/03/27 22:26:00;;;;;;;;;;;;;;;;;;4966141;28;19921;-42
2024/03/27 22:28:26;;;;;;;;;;;;;;;;;;4972608;28;19945;-43
2024/03/27 22:30:52;;;;;;;;;;;;;;;;;;4971621;28;19922;-46
2024/03/27 22:33:18;;;;;;;;;;;;;;;;;;4969688;28;19919;-42
2024/03/27 22:35:44;;;;;;;;;;;;;;;;;;4969520;28;20332;-43
2024/03/27 22:38:10;;;;;;;;;;;;;;;;;;4969637;28;19914;-43